Time;durP1;ratioP1;P1;durP2;ratioP2;P2;SDS_P1;SDS_P2;PMS_P1;PMS_P2;Temp;Humidity;BMP_temperature;BMP_pressure;BME280_temperature;BME280_humidity;BME280_pressure;Samples;Min_cycle;Max_cycle;Signal;HPM_P1;HPM_P2
2023/12/27 00:01:03;;;;;;;15.52;9.30;;;;;;;;;;5012654;28;20026;-73
2023/12/27 00:03:28;;;;;;;13.73;8.63;;;;;;;;;;5013990;28;20065;-75
2023/12/27 00:05:53;;;;;;;13.15;7.88;;;;;;;;;;5013966;28;20022;-73
2023/12/27 00:08:18;;;;;;;18.92;9.07;;;;;;;;;;5015097;28;20029;-73
2023/12/27 00:10:44;;;;;;;12.73;7.68;;;;;;;;;;5015903;28;20382;-74
2023/12/27 00:13:09;;;;;;;12.17;7.47;;;;;;;;;;5015246;28;20454;-74
2023/12/27 00:15:34;;;;;;;12.00;8.07;;;;;;;;;;5014160;28;20279;-72
2023/12/27 00:17:59;;;;;;;15.93;8.90;;;;;;;;;;5013780;28;20021;-72
2023/12/27 00:20:25;;;;;;;16.10;8.10;;;;;;;;;;5013462;28;20489;-72
2023/12/27 00:22:50;;;;;;;16.15;6.88;;;;;;;;;;5013574;28;20444;-72
2023/12/27 00:25:15;;;;;;;14.38;7.80;;;;;;;;;;5013355;28;20493;-73
2023/12/27 00:27:40;;;;;;;16.20;7.80;;;;;;;;;;5013703;28;20026;-73
2023/12/27 00:30:06;;;;;;;14.90;7.93;;;;;;;;;;5013619;28;20379;-72
2023/12/27 00:32:31;;;;;;;14.18;8.18;;;;;;;;;;5013560;28;20025;-73
2023/12/27 00:34:56;;;;;;;14.48;7.40;;;;;;;;;;5014028;28;20176;-71
2023/12/27 00:37:22;;;;;;;19.60;8.73;;;;;;;;;;5013255;28;20029;-73
2023/12/27 00:39:47;;;;;;;19.63;8.88;;;;;;;;;;5013568;28;20034;-72
2023/12/27 00:42:13;;;;;;;15.23;8.30;;;;;;;;;;5013450;28;20025;-73
2023/12/27 00:44:38;;;;;;;21.38;9.60;;;;;;;;;;5013167;28;20113;-73
2023/12/27 00:47:03;;;;;;;15.57;8.67;;;;;;;;;;5013423;28;20160;-74
2023/12/27 00:49:28;;;;;;;12.70;8.23;;;;;;;;;;5013515;28;20265;-72
2023/12/27 00:51:54;;;;;;;17.88;8.45;;;;;;;;;;5013756;28;20065;-72
2023/12/27 00:54:19;;;;;;;15.35;8.27;;;;;;;;;;5013219;28;20109;-72
2023/12/27 00:56:44;;;;;;;12.10;7.25;;;;;;;;;;5013105;28;20161;-72
2023/12/27 00:59:10;;;;;;;14.43;8.05;;;;;;;;;;5013017;28;20029;-73
2023/12/27 01:01:35;;;;;;;14.63;8.73;;;;;;;;;;5013319;28;20061;-72
2023/12/27 01:04:00;;;;;;;14.05;7.60;;;;;;;;;;5014010;28;20477;-73
2023/12/27 01:06:26;;;;;;;12.73;7.90;;;;;;;;;;5012987;28;20108;-73
2023/12/27 01:08:51;;;;;;;14.50;7.85;;;;;;;;;;5012888;28;20109;-73
2023/12/27 01:11:16;;;;;;;16.02;9.50;;;;;;;;;;5013161;28;20038;-73
2023/12/27 01:13:41;;;;;;;15.32;8.80;;;;;;;;;;5013399;28;20100;-72
2023/12/27 01:16:07;;;;;;;14.55;7.82;;;;;;;;;;5013200;28;20443;-72
2023/12/27 01:18:32;;;;;;;16.08;9.23;;;;;;;;;;5013383;28;20429;-73
2023/12/27 01:20:57;;;;;;;19.17;9.45;;;;;;;;;;5013166;28;20030;-73
2023/12/27 01:23:22;;;;;;;16.58;9.57;;;;;;;;;;5013350;28;20014;-72
2023/12/27 01:25:48;;;;;;;17.15;9.40;;;;;;;;;;5013085;28;20088;-72
2023/12/27 01:28:13;;;;;;;13.98;8.32;;;;;;;;;;5014430;28;20018;-71
2023/12/27 01:30:38;;;;;;;14.52;8.50;;;;;;;;;;5016621;28;20382;-72
2023/12/27 01:33:03;;;;;;;13.02;8.32;;;;;;;;;;5016593;28;20021;-72
2023/12/27 01:35:28;;;;;;;12.73;7.68;;;;;;;;;;5015440;28;20026;-72
2023/12/27 01:37:54;;;;;;;14.57;8.40;;;;;;;;;;5016712;28;20036;-72
2023/12/27 01:40:19;;;;;;;13.93;7.70;;;;;;;;;;5016148;28;20022;-74
2023/12/27 01:42:44;;;;;;;15.40;8.50;;;;;;;;;;5016440;28;20018;-73
2023/12/27 01:45:10;;;;;;;17.55;8.77;;;;;;;;;;5016188;28;20032;-72
2023/12/27 01:47:37;;;;;;;17.42;9.55;;;;;;;;;;5016278;28;20030;-72
2023/12/27 01:50:03;;;;;;;22.13;9.82;;;;;;;;;;5016312;28;20018;-74
2023/12/27 01:52:28;;;;;;;13.32;8.15;;;;;;;;;;5016488;28;20541;-73
2023/12/27 01:54:53;;;;;;;15.13;8.90;;;;;;;;;;5014994;28;20526;-73
2023/12/27 01:57:19;;;;;;;19.30;9.57;;;;;;;;;;5016162;28;20521;-72
2023/12/27 01:59:47;;;;;;;17.85;9.80;;;;;;;;;;5016661;28;20041;-72
2023/12/27 02:02:13;;;;;;;18.02;9.52;;;;;;;;;;5020145;28;20114;-72
2023/12/27 02:04:38;;;;;;;15.15;8.93;;;;;;;;;;5023148;28;20029;-72
2023/12/27 02:07:04;;;;;;;17.42;9.18;;;;;;;;;;5023210;28;20513;-75
2023/12/27 02:09:29;;;;;;;19.10;9.88;;;;;;;;;;5023952;28;20045;-73
2023/12/27 02:11:55;;;;;;;18.92;10.25;;;;;;;;;;5024149;28;20026;-73
2023/12/27 02:14:20;;;;;;;17.90;9.18;;;;;;;;;;5023640;28;20064;-73
2023/12/27 02:16:45;;;;;;;17.10;9.70;;;;;;;;;;5023313;28;20037;-74
2023/12/27 02:19:12;;;;;;;16.90;8.00;;;;;;;;;;5020297;28;20010;-72
2023/12/27 02:21:38;;;;;;;16.17;9.30;;;;;;;;;;5016264;28;20509;-72
2023/12/27 02:24:03;;;;;;;17.60;8.95;;;;;;;;;;5015879;28;20041;-73
2023/12/27 02:26:28;;;;;;;26.00;9.88;;;;;;;;;;5015923;28;20033;-74
2023/12/27 02:28:54;;;;;;;16.90;9.30;;;;;;;;;;5014465;28;20026;-72
2023/12/27 02:31:19;;;;;;;17.73;9.80;;;;;;;;;;5016034;28;20104;-72
2023/12/27 02:33:44;;;;;;;19.33;9.25;;;;;;;;;;5016307;28;20034;-73
2023/12/27 02:36:10;;;;;;;22.75;10.20;;;;;;;;;;5015458;28;20488;-73
2023/12/27 02:38:36;;;;;;;20.25;9.50;;;;;;;;;;5015068;28;20431;-73
2023/12/27 02:41:02;;;;;;;17.50;9.60;;;;;;;;;;5015338;28;20109;-73
2023/12/27 02:43:27;;;;;;;21.90;10.07;;;;;;;;;;5014212;28;20491;-73
2023/12/27 02:45:52;;;;;;;22.15;10.88;;;;;;;;;;5015316;28;20022;-72
2023/12/27 02:48:17;;;;;;;20.35;10.73;;;;;;;;;;5015268;28;20037;-73
2023/12/27 02:50:44;;;;;;;24.08;10.52;;;;;;;;;;5015629;28;20076;-73
2023/12/27 02:53:09;;;;;;;17.67;10.45;;;;;;;;;;5014853;28;20042;-76
2023/12/27 02:55:35;;;;;;;23.88;10.20;;;;;;;;;;5015402;28;20113;-72
2023/12/27 02:58:00;;;;;;;22.77;10.32;;;;;;;;;;5015673;28;20037;-73
2023/12/27 03:00:25;;;;;;;27.15;11.00;;;;;;;;;;5014892;28;20029;-73
2023/12/27 03:02:50;;;;;;;22.42;11.13;;;;;;;;;;5013726;28;20478;-72
2023/12/27 03:05:16;;;;;;;24.98;12.07;;;;;;;;;;5013463;28;20022;-72
2023/12/27 03:07:41;;;;;;;26.00;11.43;;;;;;;;;;5014831;28;20101;-72
2023/12/27 03:10:06;;;;;;;25.63;12.50;;;;;;;;;;5013927;28;20496;-73
2023/12/27 03:12:32;;;;;;;24.40;11.65;;;;;;;;;;5015261;28;20101;-73
2023/12/27 03:14:57;;;;;;;30.83;12.45;;;;;;;;;;5013605;28;20025;-73
2023/12/27 03:17:22;;;;;;;23.20;12.17;;;;;;;;;;5014687;28;20075;-73
2023/12/27 03:19:47;;;;;;;25.35;11.77;;;;;;;;;;5014724;28;20284;-72
2023/12/27 03:22:13;;;;;;;31.57;13.33;;;;;;;;;;5014520;28;20026;-80
2023/12/27 03:24:38;;;;;;;24.45;12.75;;;;;;;;;;5014603;28;20324;-72
2023/12/27 03:27:03;;;;;;;32.28;13.07;;;;;;;;;;5014427;28;20034;-72
2023/12/27 03:29:28;;;;;;;21.80;11.82;;;;;;;;;;5014819;28;20068;-72
2023/12/27 03:31:54;;;;;;;29.38;11.85;;;;;;;;;;5013734;28;20025;-73
2023/12/27 03:34:19;;;;;;;26.42;13.07;;;;;;;;;;5013851;28;20092;-73
2023/12/27 03:36:44;;;;;;;26.17;12.23;;;;;;;;;;5014118;28;20025;-72
2023/12/27 03:39:09;;;;;;;29.20;13.13;;;;;;;;;;5014358;28;20374;-73
2023/12/27 03:41:35;;;;;;;30.20;13.90;;;;;;;;;;5013955;28;20378;-72
2023/12/27 03:44:00;;;;;;;39.53;14.77;;;;;;;;;;5013756;28;20495;-72
2023/12/27 03:46:26;;;;;;;35.55;14.32;;;;;;;;;;5014053;28;20037;-72
2023/12/27 03:48:51;;;;;;;29.65;13.88;;;;;;;;;;5014189;28;20402;-72
2023/12/27 03:51:18;;;;;;;36.33;15.68;;;;;;;;;;5013803;28;20022;-72
2023/12/27 03:53:43;;;;;;;36.88;14.10;;;;;;;;;;5014115;28;20095;-73
2023/12/27 03:56:10;;;;;;;35.60;14.00;;;;;;;;;;5013870;28;20105;-72
2023/12/27 03:58:35;;;;;;;34.85;16.25;;;;;;;;;;5014081;28;20363;-73
2023/12/27 04:01:00;;;;;;;39.92;16.23;;;;;;;;;;5013909;28;20475;-72
2023/12/27 04:03:26;;;;;;;42.35;16.48;;;;;;;;;;5014340;28;20022;-73
2023/12/27 04:05:51;;;;;;;39.97;16.27;;;;;;;;;;5013804;28;20034;-72
2023/12/27 04:08:16;;;;;;;35.63;16.83;;;;;;;;;;5013858;28;20669;-72
2023/12/27 04:10:41;;;;;;;43.40;16.05;;;;;;;;;;5013737;28;20316;-72
2023/12/27 04:13:06;;;;;;;47.63;17.42;;;;;;;;;;5013439;28;20044;-74
2023/12/27 04:15:32;;;;;;;33.83;15.20;;;;;;;;;;5013870;28;20030;-73
2023/12/27 04:17:57;;;;;;;41.85;18.25;;;;;;;;;;5013335;28;20763;-73
2023/12/27 04:20:22;;;;;;;37.40;17.55;;;;;;;;;;5013616;28;20040;-73
2023/12/27 04:22:47;;;;;;;34.85;17.42;;;;;;;;;;5013614;28;20511;-72
2023/12/27 04:25:12;;;;;;;36.00;17.27;;;;;;;;;;5013609;28;20030;-75
2023/12/27 04:27:38;;;;;;;40.80;17.27;;;;;;;;;;5012275;28;20038;-72
2023/12/27 04:30:04;;;;;;;45.45;17.75;;;;;;;;;;5014039;28;20022;-72
2023/12/27 04:32:29;;;;;;;38.55;16.60;;;;;;;;;;5013390;28;20072;-73
2023/12/27 04:34:54;;;;;;;36.97;16.27;;;;;;;;;;5013526;28;20107;-72
2023/12/27 04:37:19;;;;;;;43.72;16.67;;;;;;;;;;5013516;28;20025;-72
2023/12/27 04:39:44;;;;;;;36.80;16.33;;;;;;;;;;5013543;28;20022;-72
2023/12/27 04:42:10;;;;;;;36.97;15.70;;;;;;;;;;5012307;28;20118;-72
2023/12/27 04:44:35;;;;;;;41.63;16.88;;;;;;;;;;5013045;28;20104;-73
2023/12/27 04:47:01;;;;;;;35.80;15.57;;;;;;;;;;5013412;28;20521;-73
2023/12/27 04:49:26;;;;;;;34.75;14.80;;;;;;;;;;5012034;28;20284;-73
2023/12/27 04:51:51;;;;;;;39.30;15.23;;;;;;;;;;5013112;28;20080;-73
2023/12/27 04:54:16;;;;;;;32.73;14.63;;;;;;;;;;5014151;28;20336;-72
2023/12/27 04:56:42;;;;;;;31.90;14.17;;;;;;;;;;5013523;28;20332;-73
2023/12/27 04:59:07;;;;;;;40.10;14.57;;;;;;;;;;5014913;28;20759;-80
2023/12/27 05:01:32;;;;;;;40.53;14.75;;;;;;;;;;5015508;28;20026;-72
2023/12/27 05:03:57;;;;;;;41.83;14.70;;;;;;;;;;5016313;28;20052;-73
2023/12/27 05:06:23;;;;;;;33.75;13.32;;;;;;;;;;5017323;28;20033;-72
2023/12/27 05:08:48;;;;;;;42.58;13.18;;;;;;;;;;5017096;28;20390;-73
2023/12/27 05:11:21;;;;;;;37.80;12.60;;;;;;;;;;5016704;28;20466;-72
2023/12/27 05:13:47;;;;;;;33.50;12.15;;;;;;;;;;5017009;28;20097;-72
2023/12/27 05:16:13;;;;;;;36.38;11.88;;;;;;;;;;5016934;28;20101;-72
2023/12/27 05:18:41;;;;;;;33.63;10.93;;;;;;;;;;5016843;28;20098;-72
2023/12/27 05:21:07;;;;;;;35.60;12.32;;;;;;;;;;5016626;28;20065;-72
2023/12/27 05:23:32;;;;;;;36.60;11.80;;;;;;;;;;5016888;28;20096;-72
2023/12/27 05:25:57;;;;;;;31.98;12.13;;;;;;;;;;5016581;28;20029;-73
2023/12/27 05:28:23;;;;;;;27.27;11.93;;;;;;;;;;5016622;28;20025;-73
2023/12/27 05:30:48;;;;;;;36.40;12.20;;;;;;;;;;5017485;28;20030;-73
2023/12/27 05:33:13;;;;;;;35.63;12.13;;;;;;;;;;5016747;28;20029;-72
2023/12/27 05:35:38;;;;;;;33.20;11.13;;;;;;;;;;5016399;28;20429;-73
2023/12/27 05:38:04;;;;;;;35.10;13.00;;;;;;;;;;5016255;28;20057;-73
2023/12/27 05:40:29;;;;;;;36.95;13.10;;;;;;;;;;5016466;28;20336;-72
2023/12/27 05:42:54;;;;;;;35.53;12.93;;;;;;;;;;5016460;28;20097;-74
2023/12/27 05:45:19;;;;;;;39.28;13.00;;;;;;;;;;5015946;28;20396;-72
2023/12/27 05:47:44;;;;;;;37.92;12.85;;;;;;;;;;5015367;28;20033;-74
2023/12/27 05:50:10;;;;;;;46.75;14.32;;;;;;;;;;5016839;28;20037;-74
2023/12/27 05:52:35;;;;;;;35.17;12.97;;;;;;;;;;5016648;28;20053;-75
2023/12/27 05:55:00;;;;;;;35.63;13.27;;;;;;;;;;5016297;28;20614;-73
2023/12/27 05:57:25;;;;;;;38.00;12.70;;;;;;;;;;5016125;28;20108;-73
2023/12/27 05:59:51;;;;;;;34.43;12.70;;;;;;;;;;5015713;28;20263;-75
2023/12/27 06:02:16;;;;;;;40.25;14.50;;;;;;;;;;5015728;28;20249;-75
2023/12/27 06:04:42;;;;;;;35.63;13.35;;;;;;;;;;5015779;28;20028;-73
2023/12/27 06:07:07;;;;;;;36.30;12.93;;;;;;;;;;5015608;28;20030;-75
2023/12/27 06:09:32;;;;;;;37.00;13.55;;;;;;;;;;5016066;28;20742;-73
2023/12/27 06:11:58;;;;;;;41.45;13.23;;;;;;;;;;5015713;28;20029;-74
2023/12/27 06:14:23;;;;;;;45.33;14.15;;;;;;;;;;5016307;28;20025;-75
2023/12/27 06:16:48;;;;;;;34.70;13.20;;;;;;;;;;5015554;28;20030;-74
2023/12/27 06:19:13;;;;;;;38.58;13.07;;;;;;;;;;5015491;28;20097;-75
2023/12/27 06:21:39;;;;;;;42.35;15.68;;;;;;;;;;5016106;28;20033;-75
2023/12/27 06:24:04;;;;;;;29.00;13.60;;;;;;;;;;5016138;28;20029;-74
2023/12/27 06:26:30;;;;;;;38.67;13.95;;;;;;;;;;5015986;28;20037;-74
2023/12/27 06:28:55;;;;;;;44.75;14.52;;;;;;;;;;5016136;28;20022;-75
2023/12/27 06:31:20;;;;;;;38.80;14.10;;;;;;;;;;5015871;28;20109;-75
2023/12/27 06:33:45;;;;;;;38.95;14.82;;;;;;;;;;5013664;28;20482;-75
2023/12/27 06:36:11;;;;;;;40.97;15.00;;;;;;;;;;5015279;28;20105;-75
2023/12/27 06:38:36;;;;;;;44.78;15.80;;;;;;;;;;5015314;28;20067;-74
2023/12/27 06:41:02;;;;;;;58.28;16.30;;;;;;;;;;5015058;28;20481;-74
2023/12/27 06:43:28;;;;;;;44.00;16.30;;;;;;;;;;5015321;28;20343;-74
2023/12/27 06:45:53;;;;;;;34.37;15.50;;;;;;;;;;5014874;28;20033;-74
2023/12/27 06:48:18;;;;;;;47.23;15.73;;;;;;;;;;5013573;28;20287;-75
2023/12/27 06:50:44;;;;;;;39.38;15.18;;;;;;;;;;5015041;28;20261;-76
2023/12/27 06:53:09;;;;;;;43.95;16.25;;;;;;;;;;5014988;28;20046;-75
2023/12/27 06:55:34;;;;;;;35.85;14.55;;;;;;;;;;5014972;28;20034;-75
2023/12/27 06:58:00;;;;;;;40.13;14.82;;;;;;;;;;5015002;28;20014;-75
2023/12/27 07:00:25;;;;;;;38.88;14.98;;;;;;;;;;5014919;28;20538;-75
2023/12/27 07:02:50;;;;;;;39.22;15.23;;;;;;;;;;5015398;28;20018;-74
2023/12/27 07:05:16;;;;;;;41.78;14.63;;;;;;;;;;5015059;28;20030;-75
2023/12/27 07:07:41;;;;;;;30.13;14.65;;;;;;;;;;5015290;28;20018;-78
2023/12/27 07:10:06;;;;;;;38.05;15.70;;;;;;;;;;5014614;28;20121;-75
2023/12/27 07:12:32;;;;;;;30.58;13.93;;;;;;;;;;5014422;28;20024;-77
2023/12/27 07:14:57;;;;;;;38.90;14.38;;;;;;;;;;5014566;28;20100;-74
2023/12/27 07:17:23;;;;;;;31.33;13.07;;;;;;;;;;5014999;28;20061;-75
2023/12/27 07:19:48;;;;;;;33.25;13.85;;;;;;;;;;5015425;28;20034;-75
2023/12/27 07:22:14;;;;;;;32.67;13.40;;;;;;;;;;5013561;28;20030;-75
2023/12/27 07:24:39;;;;;;;24.45;12.95;;;;;;;;;;5014383;28;20088;-75
2023/12/27 07:27:04;;;;;;;34.42;12.82;;;;;;;;;;5013647;28;20022;-75
2023/12/27 07:29:30;;;;;;;31.92;13.23;;;;;;;;;;5014566;28;20014;-75
2023/12/27 07:31:55;;;;;;;28.20;12.77;;;;;;;;;;5014346;28;20076;-77
2023/12/27 07:34:21;;;;;;;27.63;13.35;;;;;;;;;;5014326;28;20029;-75
2023/12/27 07:36:47;;;;;;;24.17;12.50;;;;;;;;;;5014396;28;20022;-76
2023/12/27 07:39:13;;;;;;;23.67;12.65;;;;;;;;;;5013980;28;20026;-76
2023/12/27 07:41:38;;;;;;;27.27;12.70;;;;;;;;;;5014583;28;20030;-75
2023/12/27 07:44:04;;;;;;;26.05;12.20;;;;;;;;;;5013698;28;20471;-74
2023/12/27 07:46:29;;;;;;;23.67;12.55;;;;;;;;;;5012308;28;20022;-75
2023/12/27 07:48:54;;;;;;;26.23;13.10;;;;;;;;;;5013872;28;20022;-75
2023/12/27 07:51:19;;;;;;;23.55;13.30;;;;;;;;;;5014165;28;20269;-75
2023/12/27 07:53:45;;;;;;;24.50;12.70;;;;;;;;;;5014463;28;20141;-76
2023/12/27 07:56:15;;;;;;;24.30;13.50;;;;;;;;;;5014502;28;20105;-76
2023/12/27 07:58:40;;;;;;;28.07;13.40;;;;;;;;;;5014303;28;20020;-75
2023/12/27 08:01:06;;;;;;;24.17;13.03;;;;;;;;;;5013615;28;20445;-74
2023/12/27 08:03:31;;;;;;;25.48;14.55;;;;;;;;;;5013905;28;20723;-74
2023/12/27 08:05:56;;;;;;;25.33;13.47;;;;;;;;;;5013664;28;20474;-75
2023/12/27 08:08:21;;;;;;;23.00;13.60;;;;;;;;;;5014355;28;20275;-76
2023/12/27 08:10:47;;;;;;;22.83;13.47;;;;;;;;;;5013749;28;20257;-75
2023/12/27 08:13:12;;;;;;;20.00;14.18;;;;;;;;;;5014291;28;20261;-76
2023/12/27 08:15:37;;;;;;;27.58;14.70;;;;;;;;;;5013395;28;20458;-75
2023/12/27 08:18:03;;;;;;;21.63;12.65;;;;;;;;;;5013437;28;20381;-76
2023/12/27 08:20:29;;;;;;;22.50;12.30;;;;;;;;;;5013954;28;20029;-75
2023/12/27 08:22:54;;;;;;;24.48;13.00;;;;;;;;;;5013357;28;20029;-80
2023/12/27 08:25:19;;;;;;;22.10;13.00;;;;;;;;;;5013766;28;20155;-74
2023/12/27 08:27:44;;;;;;;18.87;12.80;;;;;;;;;;5013551;28;20399;-76
2023/12/27 08:30:10;;;;;;;24.40;14.00;;;;;;;;;;5013462;28;20348;-74
2023/12/27 08:32:35;;;;;;;24.33;12.82;;;;;;;;;;5013527;28;20105;-76
2023/12/27 08:35:00;;;;;;;28.42;14.38;;;;;;;;;;5013591;28;20053;-76
2023/12/27 08:37:26;;;;;;;28.37;13.80;;;;;;;;;;5014648;28;20069;-76
2023/12/27 08:39:51;;;;;;;26.63;14.25;;;;;;;;;;5017270;28;20319;-76
2023/12/27 08:42:16;;;;;;;27.92;14.00;;;;;;;;;;5017514;28;20025;-79
2023/12/27 08:44:42;;;;;;;29.45;14.80;;;;;;;;;;5017066;28;20029;-75
2023/12/27 08:47:07;;;;;;;32.07;16.60;;;;;;;;;;5017425;28;20084;-75
2023/12/27 08:49:32;;;;;;;29.75;15.05;;;;;;;;;;5017004;28;20591;-77
2023/12/27 08:51:57;;;;;;;31.60;15.95;;;;;;;;;;5016993;28;20523;-77
2023/12/27 08:54:22;;;;;;;36.17;16.25;;;;;;;;;;5017177;28;20037;-75
2023/12/27 08:56:48;;;;;;;32.85;16.40;;;;;;;;;;5017101;28;20099;-76
2023/12/27 08:59:13;;;;;;;39.20;17.88;;;;;;;;;;5017068;28;20078;-78
2023/12/27 09:01:38;;;;;;;34.58;17.08;;;;;;;;;;5017446;28;20483;-76
2023/12/27 09:04:04;;;;;;;32.17;16.95;;;;;;;;;;5016683;28;20045;-78
2023/12/27 09:06:29;;;;;;;40.80;19.33;;;;;;;;;;5016783;28;20022;-75
2023/12/27 09:08:54;;;;;;;40.78;18.52;;;;;;;;;;5017323;28;20020;-75
2023/12/27 09:11:19;;;;;;;37.45;18.35;;;;;;;;;;5017146;28;20111;-74
2023/12/27 09:13:45;;;;;;;39.17;18.45;;;;;;;;;;5016872;28;20360;-76
2023/12/27 09:16:10;;;;;;;45.25;20.30;;;;;;;;;;5016616;28;20026;-75
2023/12/27 09:18:35;;;;;;;38.97;19.25;;;;;;;;;;5016519;28;20029;-75
2023/12/27 09:21:01;;;;;;;45.33;21.45;;;;;;;;;;5016313;28;20481;-77
2023/12/27 09:23:26;;;;;;;44.30;20.70;;;;;;;;;;5016902;28;20422;-75
2023/12/27 09:25:51;;;;;;;50.13;22.65;;;;;;;;;;5016117;28;20088;-75
2023/12/27 09:28:18;;;;;;;56.95;23.75;;;;;;;;;;5016457;28;20029;-76
2023/12/27 09:30:44;;;;;;;48.10;22.45;;;;;;;;;;5015177;28;20474;-75
2023/12/27 09:33:09;;;;;;;60.50;25.33;;;;;;;;;;5015728;28;20018;-77
2023/12/27 09:35:34;;;;;;;65.85;26.30;;;;;;;;;;5015158;28;20033;-74
2023/12/27 09:37:59;;;;;;;63.37;25.70;;;;;;;;;;5018480;28;20050;-75
2023/12/27 09:40:24;;;;;;;65.28;27.35;;;;;;;;;;5018784;28;20344;-75
2023/12/27 09:42:50;;;;;;;68.80;26.58;;;;;;;;;;5019301;28;20049;-77
2023/12/27 09:45:18;;;;;;;68.85;28.08;;;;;;;;;;5020039;28;20408;-73
2023/12/27 09:47:44;;;;;;;58.63;26.10;;;;;;;;;;5025775;28;20026;-75
2023/12/27 09:50:09;;;;;;;59.22;24.75;;;;;;;;;;5024690;28;20032;-74
2023/12/27 09:52:38;;;;;;;60.28;25.77;;;;;;;;;;5026215;28;20054;-76
2023/12/27 09:55:03;;;;;;;61.97;24.15;;;;;;;;;;5028287;28;20104;-76
2023/12/27 09:57:29;;;;;;;51.55;23.67;;;;;;;;;;5025859;28;20033;-76
2023/12/27 09:59:55;;;;;;;55.28;24.90;;;;;;;;;;5024388;28;20018;-74
2023/12/27 10:02:20;;;;;;;54.08;22.95;;;;;;;;;;5023625;28;20078;-74
2023/12/27 10:05:04;;;;;;;59.00;23.55;;;;;;;;;;5017682;28;20113;-75
2023/12/27 10:07:30;;;;;;;64.63;24.33;;;;;;;;;;5016566;28;20036;-75
2023/12/27 10:09:55;;;;;;;55.90;24.52;;;;;;;;;;5016488;28;20101;-78
2023/12/27 10:12:21;;;;;;;49.67;23.52;;;;;;;;;;5016477;28;20072;-75
2023/12/27 10:14:46;;;;;;;56.85;24.50;;;;;;;;;;5015726;28;20061;-78
2023/12/27 10:17:12;;;;;;;55.47;24.20;;;;;;;;;;5015444;28;20029;-77
2023/12/27 10:19:40;;;;;;;50.35;23.55;;;;;;;;;;5015611;28;20471;-76
2023/12/27 10:22:06;;;;;;;51.95;23.30;;;;;;;;;;5014509;28;20034;-75
2023/12/27 10:24:31;;;;;;;57.22;24.80;;;;;;;;;;5015696;28;20034;-75
2023/12/27 10:26:57;;;;;;;62.53;23.45;;;;;;;;;;5015967;28;20366;-76
2023/12/27 10:29:23;;;;;;;51.75;22.67;;;;;;;;;;5014925;28;20021;-76
2023/12/27 10:31:48;;;;;;;46.28;23.50;;;;;;;;;;5013647;28;20527;-75
2023/12/27 10:34:14;;;;;;;50.88;22.52;;;;;;;;;;5015311;28;20033;-78
2023/12/27 10:36:42;;;;;;;46.72;23.20;;;;;;;;;;5015024;28;20014;-75
2023/12/27 10:39:08;;;;;;;46.80;21.40;;;;;;;;;;5015566;28;20029;-81
2023/12/27 10:41:34;;;;;;;53.42;21.50;;;;;;;;;;5014991;28;20028;-77
2023/12/27 10:44:00;;;;;;;46.70;21.58;;;;;;;;;;5014991;28;20105;-77
2023/12/27 10:46:25;;;;;;;50.40;21.20;;;;;;;;;;5014943;28;20473;-76
2023/12/27 10:48:52;;;;;;;45.25;20.50;;;;;;;;;;5014797;28;20026;-75
2023/12/27 10:51:17;;;;;;;38.75;19.02;;;;;;;;;;5015333;28;20018;-76
2023/12/27 10:53:43;;;;;;;41.88;19.20;;;;;;;;;;5015906;28;20414;-78
2023/12/27 10:56:09;;;;;;;41.05;19.45;;;;;;;;;;5014702;28;20373;-74
2023/12/27 10:58:38;;;;;;;38.25;18.13;;;;;;;;;;5014833;28;20063;-76
2023/12/27 11:01:04;;;;;;;38.50;18.48;;;;;;;;;;5013686;28;20100;-76
2023/12/27 11:03:30;;;;;;;38.72;17.58;;;;;;;;;;5014560;28;20025;-75
2023/12/27 11:05:59;;;;;;;37.72;17.02;;;;;;;;;;5014451;28;20038;-75
2023/12/27 11:08:27;;;;;;;32.75;15.93;;;;;;;;;;5014622;28;20053;-76
2023/12/27 11:10:52;;;;;;;31.75;15.30;;;;;;;;;;5014297;28;20025;-75
2023/12/27 11:13:20;;;;;;;33.05;15.80;;;;;;;;;;5014664;28;20076;-74
2023/12/27 11:15:46;;;;;;;26.17;13.75;;;;;;;;;;5015048;28;20030;-75
2023/12/27 11:18:12;;;;;;;27.92;13.38;;;;;;;;;;5013608;28;20459;-75
2023/12/27 11:20:40;;;;;;;23.92;13.40;;;;;;;;;;5014496;28;20029;-77
2023/12/27 11:23:05;;;;;;;25.00;13.32;;;;;;;;;;5015128;28;20022;-74
2023/12/27 11:25:30;;;;;;;31.55;13.32;;;;;;;;;;5014779;28;20056;-73
2023/12/27 11:27:58;;;;;;;19.67;12.50;;;;;;;;;;5014038;28;20030;-77
2023/12/27 11:30:23;;;;;;;23.65;13.32;;;;;;;;;;5014354;28;20018;-74
2023/12/27 11:32:49;;;;;;;21.35;12.00;;;;;;;;;;5012675;28;20482;-76
2023/12/27 11:35:24;;;;;;;27.40;12.75;;;;;;;;;;5013325;28;20029;-76
2023/12/27 11:37:50;;;;;;;20.75;11.90;;;;;;;;;;5013426;28;20018;-81
2023/12/27 11:40:32;;;;;;;22.23;11.45;;;;;;;;;;5012275;28;20029;-77
2023/12/27 11:42:57;;;;;;;21.42;10.52;;;;;;;;;;5013680;28;20451;-75
2023/12/27 11:45:22;;;;;;;20.30;11.25;;;;;;;;;;5012912;28;20069;-76
2023/12/27 11:47:47;;;;;;;22.90;10.80;;;;;;;;;;5013247;28;20025;-75
2023/12/27 11:50:13;;;;;;;18.85;10.90;;;;;;;;;;5014231;28;20037;-76
2023/12/27 11:52:41;;;;;;;19.67;10.77;;;;;;;;;;5013192;28;20054;-76
2023/12/27 11:55:20;;;;;;;15.57;9.95;;;;;;;;;;5013283;28;20256;-75
2023/12/27 11:57:46;;;;;;;20.05;10.15;;;;;;;;;;5013661;28;20036;-75
2023/12/27 12:00:24;;;;;;;13.63;9.73;;;;;;;;;;5012608;28;20458;-75
2023/12/27 12:02:51;;;;;;;14.07;8.90;;;;;;;;;;5014414;28;20099;-75
2023/12/27 12:05:26;;;;;;;21.67;10.43;;;;;;;;;;5013801;28;20049;-76
2023/12/27 12:08:00;;;;;;;15.55;9.60;;;;;;;;;;5013436;28;20029;-75
2023/12/27 12:10:26;;;;;;;19.17;9.18;;;;;;;;;;5013321;28;20022;-75
2023/12/27 12:12:52;;;;;;;10.93;8.45;;;;;;;;;;5012993;28;20061;-79
2023/12/27 12:15:22;;;;;;;19.05;9.00;;;;;;;;;;5012860;28;20034;-75
2023/12/27 12:17:48;;;;;;;16.90;8.88;;;;;;;;;;5013296;28;20021;-74
2023/12/27 12:20:13;;;;;;;19.25;8.98;;;;;;;;;;5014017;28;20026;-75
2023/12/27 12:22:39;;;;;;;16.65;7.95;;;;;;;;;;5011972;28;20111;-75
2023/12/27 12:25:04;;;;;;;14.60;7.78;;;;;;;;;;5013231;28;20040;-75
2023/12/27 12:27:30;;;;;;;11.48;7.72;;;;;;;;;;5013040;28;20117;-79
2023/12/27 12:29:55;;;;;;;18.55;9.00;;;;;;;;;;5012302;28;20030;-74
2023/12/27 12:32:20;;;;;;;16.98;8.38;;;;;;;;;;5012549;28;20030;-75
2023/12/27 12:34:46;;;;;;;15.13;7.90;;;;;;;;;;5012893;28;20510;-76
2023/12/27 12:37:11;;;;;;;12.20;8.02;;;;;;;;;;5012329;28;20164;-77
2023/12/27 12:39:36;;;;;;;15.60;8.57;;;;;;;;;;5013335;28;20347;-74
2023/12/27 12:42:02;;;;;;;15.50;8.85;;;;;;;;;;5013253;28;20049;-74
2023/12/27 12:44:30;;;;;;;14.02;7.75;;;;;;;;;;5012884;28;20387;-75
2023/12/27 12:46:55;;;;;;;10.65;6.90;;;;;;;;;;5013648;28;20026;-76
2023/12/27 12:49:20;;;;;;;13.25;7.15;;;;;;;;;;5013189;28;20101;-74
2023/12/27 12:51:45;;;;;;;15.18;7.28;;;;;;;;;;5012920;28;20032;-75
2023/12/27 12:54:11;;;;;;;13.57;6.70;;;;;;;;;;5013672;28;20052;-74
2023/12/27 12:56:39;;;;;;;12.90;7.15;;;;;;;;;;5013078;28;20455;-76
2023/12/27 12:59:07;;;;;;;10.63;6.82;;;;;;;;;;5012725;28;20096;-75
2023/12/27 13:01:33;;;;;;;13.93;6.72;;;;;;;;;;5013251;28;20371;-75
2023/12/27 13:03:58;;;;;;;12.40;6.20;;;;;;;;;;4994776;28;20038;-75
2023/12/27 13:06:24;;;;;;;12.85;5.93;;;;;;;;;;5011911;28;20052;-75
2023/12/27 13:08:54;;;;;;;14.85;6.13;;;;;;;;;;5012899;28;20033;-77
2023/12/27 13:11:21;;;;;;;16.88;6.25;;;;;;;;;;5013112;28;20018;-74
2023/12/27 13:13:46;;;;;;;11.77;6.13;;;;;;;;;;5012466;28;20033;-74
2023/12/27 13:16:11;;;;;;;10.25;6.57;;;;;;;;;;5014290;28;20030;-75
2023/12/27 13:18:38;;;;;;;16.85;7.25;;;;;;;;;;5013129;28;20033;-78
2023/12/27 13:21:04;;;;;;;16.98;7.80;;;;;;;;;;5012968;28;20018;-75
2023/12/27 13:23:29;;;;;;;11.13;6.20;;;;;;;;;;5013133;28;20092;-81
2023/12/27 13:25:54;;;;;;;11.60;6.00;;;;;;;;;;5016228;28;20025;-76
2023/12/27 13:28:24;;;;;;;14.20;6.05;;;;;;;;;;5015637;28;20026;-76
2023/12/27 13:30:50;;;;;;;8.48;5.75;;;;;;;;;;5016611;28;20026;-74
2023/12/27 13:33:15;;;;;;;12.18;6.15;;;;;;;;;;5015638;28;20028;-77
2023/12/27 13:35:40;;;;;;;10.03;6.50;;;;;;;;;;5016472;28;20030;-74
2023/12/27 13:38:06;;;;;;;12.43;6.57;;;;;;;;;;5015611;28;20745;-74
2023/12/27 13:40:33;;;;;;;9.93;5.93;;;;;;;;;;5016192;28;20517;-76
2023/12/27 13:42:58;;;;;;;14.10;6.45;;;;;;;;;;5016174;28;20030;-74
2023/12/27 13:45:23;;;;;;;12.63;6.13;;;;;;;;;;5015887;28;20383;-75
2023/12/27 13:47:48;;;;;;;15.32;5.47;;;;;;;;;;5016166;28;20272;-76
2023/12/27 13:50:14;;;;;;;12.80;6.47;;;;;;;;;;5015753;28;20067;-75
2023/12/27 13:52:39;;;;;;;12.77;5.65;;;;;;;;;;5015181;28;20072;-76
2023/12/27 13:55:05;;;;;;;10.52;5.82;;;;;;;;;;5015944;28;20477;-76
2023/12/27 13:57:30;;;;;;;16.45;6.05;;;;;;;;;;5016203;28;20033;-76
2023/12/27 13:59:56;;;;;;;12.50;5.63;;;;;;;;;;5015769;28;20017;-76
2023/12/27 14:02:21;;;;;;;15.70;5.83;;;;;;;;;;5016046;28;20029;-74
2023/12/27 14:04:46;;;;;;;12.32;5.70;;;;;;;;;;5015439;28;20676;-74
2023/12/27 14:07:12;;;;;;;11.02;5.43;;;;;;;;;;5015850;28;20026;-74
2023/12/27 14:09:38;;;;;;;14.00;5.82;;;;;;;;;;5015517;28;20512;-74
2023/12/27 14:12:04;;;;;;;13.93;5.38;;;;;;;;;;5015649;28;20037;-75